createdAt,value
2023-02-08T00:00:44.591Z,-5.95
2023-02-08T00:03:41.622Z,-5.95
2023-02-08T00:06:38.520Z,-5.88
2023-02-08T00:09:35.370Z,-5.87
2023-02-08T00:12:33.126Z,-5.91
2023-02-08T00:15:29.980Z,-5.98
2023-02-08T00:18:26.888Z,-5.92
2023-02-08T00:21:23.748Z,-6.06
2023-02-08T00:24:20.549Z,-5.97
2023-02-08T00:27:18.163Z,-6.11
2023-02-08T00:30:15.023Z,-6.00
2023-02-08T00:33:12.836Z,-6.07
2023-02-08T00:36:11.760Z,-6.20
2023-02-08T00:39:08.570Z,-6.22
2023-02-08T00:42:05.501Z,-6.15
2023-02-08T00:45:02.375Z,-6.09
2023-02-08T00:47:59.257Z,-6.19
2023-02-08T00:51:01.349Z,-6.24
2023-02-08T00:53:58.219Z,-6.21
2023-02-08T00:56:55.073Z,-6.33
2023-02-08T00:59:51.928Z,-6.27
2023-02-08T01:02:48.794Z,-6.36
2023-02-08T01:05:45.589Z,-6.42
2023-02-08T01:08:42.801Z,-6.27
2023-02-08T01:11:39.612Z,-6.35
2023-02-08T01:14:39.224Z,-6.29
2023-02-08T01:17:36.133Z,-6.35
2023-02-08T01:20:36.453Z,-6.31
2023-02-08T01:23:33.208Z,-6.38
2023-02-08T01:26:31.030Z,-6.38
2023-02-08T01:29:27.866Z,-6.42
2023-02-08T01:32:24.694Z,-6.50
2023-02-08T01:35:21.563Z,-6.42
2023-02-08T01:38:19.850Z,-6.43
2023-02-08T01:41:18.866Z,-6.46
2023-02-08T01:44:15.568Z,-6.40
2023-02-08T01:47:12.569Z,-6.33
2023-02-08T01:50:09.855Z,-6.45
2023-02-08T01:53:06.957Z,-6.41
2023-02-08T01:56:10.356Z,-6.54
2023-02-08T01:59:18.850Z,-6.52
2023-02-08T02:02:19.571Z,-6.60
2023-02-08T02:05:17.977Z,-6.75
2023-02-08T02:08:14.935Z,-6.69
2023-02-08T02:11:12.885Z,-6.74
2023-02-08T02:14:10.369Z,-6.74
2023-02-08T02:17:07.426Z,-6.74
2023-02-08T02:20:18.228Z,-6.89
2023-02-08T02:23:47.002Z,-6.76
2023-02-08T02:27:05.800Z,-6.90
2023-02-08T02:30:47.990Z,-6.85
2023-02-08T02:34:03.589Z,-7.06
2023-02-08T02:37:34.333Z,-7.16
2023-02-08T02:41:00.935Z,-7.22
2023-02-08T02:44:00.021Z,-7.17
2023-02-08T02:47:41.202Z,-7.17
2023-02-08T02:51:03.032Z,-7.09
2023-02-08T02:54:13.772Z,-7.04
2023-02-08T02:57:16.206Z,-7.12
2023-02-08T03:00:22.753Z,-7.15
2023-02-08T03:03:27.359Z,-7.20
2023-02-08T03:07:02.484Z,-7.19
2023-02-08T03:10:24.415Z,-7.26
2023-02-08T03:13:30.870Z,-7.37
2023-02-08T03:17:01.735Z,-7.40
2023-02-08T03:20:09.208Z,-7.40
2023-02-08T03:23:30.685Z,-7.36
2023-02-08T03:26:50.416Z,-7.41
2023-02-08T03:30:26.100Z,-7.43
2023-02-08T03:33:50.030Z,-7.59
2023-02-08T03:37:01.105Z,-7.56
2023-02-08T03:40:35.213Z,-7.69
2023-02-08T03:43:54.274Z,-7.56
2023-02-08T03:46:57.638Z,-7.57
2023-02-08T03:49:59.437Z,-7.68
2023-02-08T03:52:57.111Z,-7.62
2023-02-08T03:56:01.942Z,-7.59
2023-02-08T03:59:03.505Z,-7.72
2023-02-08T04:02:04.052Z,-7.84
2023-02-08T04:05:01.889Z,-7.72
2023-02-08T04:07:58.797Z,-7.74
2023-02-08T04:10:55.636Z,-7.84
2023-02-08T04:13:52.481Z,-7.77
2023-02-08T04:16:49.304Z,-7.73
2023-02-08T04:19:46.117Z,-7.81
2023-02-08T04:22:42.945Z,-7.80
2023-02-08T04:25:39.920Z,-7.75
2023-02-08T04:28:36.816Z,-7.85
2023-02-08T04:31:33.786Z,-7.74
2023-02-08T04:34:30.673Z,-7.75
2023-02-08T04:37:28.071Z,-7.84
2023-02-08T04:40:24.891Z,-7.72
2023-02-08T04:43:21.747Z,-7.77
2023-02-08T04:46:18.609Z,-7.81
2023-02-08T04:49:15.740Z,-7.79
2023-02-08T04:52:12.561Z,-7.65
2023-02-08T04:55:09.417Z,-7.76
2023-02-08T04:58:06.258Z,-7.89
2023-02-08T05:01:07.670Z,-7.78
2023-02-08T05:04:04.809Z,-7.85
2023-02-08T05:07:01.806Z,-7.90
2023-02-08T05:09:58.637Z,-7.81
2023-02-08T05:12:55.514Z,-7.88
2023-02-08T05:15:52.515Z,-7.99
2023-02-08T05:18:49.397Z,-7.90
2023-02-08T05:21:46.209Z,-7.92
2023-02-08T05:24:43.038Z,-7.88
2023-02-08T05:27:40.907Z,-7.92
2023-02-08T05:30:38.993Z,-7.85
2023-02-08T05:33:35.920Z,-7.91
2023-02-08T05:36:32.745Z,-7.89
2023-02-08T05:39:29.561Z,-7.90
2023-02-08T05:42:27.078Z,-7.93
2023-02-08T05:45:23.972Z,-7.92
2023-02-08T05:48:21.028Z,-7.90
2023-02-08T05:51:17.885Z,-7.84
2023-02-08T05:54:14.693Z,-7.85
2023-02-08T05:57:11.530Z,-7.80
2023-02-08T06:00:09.621Z,-7.71
2023-02-08T06:03:06.708Z,-7.78
2023-02-08T06:06:03.821Z,-7.93
2023-02-08T06:09:00.702Z,-8.01
2023-02-08T06:11:57.523Z,-8.03
2023-02-08T06:14:54.332Z,-8.02
2023-02-08T06:17:51.425Z,-7.95
2023-02-08T06:20:48.415Z,-7.97
2023-02-08T06:23:45.276Z,-7.90
2023-02-08T06:26:42.714Z,-7.96
2023-02-08T06:29:39.560Z,-7.98
2023-02-08T06:32:36.384Z,-8.05
2023-02-08T06:35:33.322Z,-7.98
2023-02-08T06:38:30.129Z,-8.09
2023-02-08T06:41:27.235Z,-8.02
2023-02-08T06:44:24.484Z,-8.00
2023-02-08T06:47:25.551Z,-8.08
2023-02-08T06:50:24.138Z,-7.98
2023-02-08T06:53:21.623Z,-8.02
2023-02-08T06:56:19.077Z,-8.10
2023-02-08T06:59:15.897Z,-8.03
2023-02-08T07:02:16.047Z,-7.99
2023-02-08T07:05:14.294Z,-7.97
2023-02-08T07:08:11.124Z,-7.76
2023-02-08T07:11:15.070Z,-7.68
2023-02-08T07:14:15.832Z,-7.76
2023-02-08T07:17:13.037Z,-7.94
2023-02-08T07:20:11.519Z,-7.88
2023-02-08T07:23:08.318Z,-7.82
2023-02-08T07:26:11.940Z,-7.76
2023-02-08T07:29:08.782Z,-7.81
2023-02-08T07:32:07.596Z,-7.83
2023-02-08T07:35:04.731Z,-7.88
2023-02-08T07:38:01.569Z,-7.80
2023-02-08T07:41:06.740Z,-7.82
2023-02-08T07:44:03.722Z,-7.80
2023-02-08T07:47:02.016Z,-7.69
2023-02-08T07:49:58.854Z,-7.66
2023-02-08T07:52:55.676Z,-7.63
2023-02-08T07:55:52.496Z,-7.60
2023-02-08T07:58:49.314Z,-7.68
2023-02-08T08:01:46.160Z,-7.64
2023-02-08T08:04:43.216Z,-7.60
2023-02-08T08:07:40.022Z,-7.60
2023-02-08T08:10:37.345Z,-7.48
2023-02-08T08:13:34.185Z,-7.46
2023-02-08T08:16:31.055Z,-7.37
2023-02-08T08:19:28.402Z,-7.35
2023-02-08T08:22:25.225Z,-7.32
2023-02-08T08:25:22.087Z,-7.42
2023-02-08T08:28:19.040Z,-7.33
2023-02-08T08:31:20.998Z,-7.19
2023-02-08T08:34:17.968Z,-7.05
2023-02-08T08:37:14.774Z,-7.30
2023-02-08T08:40:12.055Z,-7.06
2023-02-08T08:43:08.970Z,-7.04
2023-02-08T08:46:08.100Z,-6.78
2023-02-08T08:49:04.954Z,-6.82
2023-02-08T08:52:01.780Z,-6.78
2023-02-08T08:54:58.602Z,-6.75
2023-02-08T08:57:55.508Z,-6.66
2023-02-08T09:00:53.983Z,-6.54
2023-02-08T09:03:50.821Z,-6.59
2023-02-08T09:06:47.637Z,-6.45
2023-02-08T09:09:47.953Z,-6.42
2023-02-08T09:12:44.722Z,-6.28
2023-02-08T09:15:42.124Z,-6.24
2023-02-08T09:18:39.055Z,-6.22
2023-02-08T09:21:36.798Z,-6.17
2023-02-08T09:24:34.815Z,-6.07
2023-02-08T09:27:31.644Z,-6.05
2023-02-08T09:30:28.466Z,-6.02
2023-02-08T09:33:26.772Z,-5.80
2023-02-08T09:36:27.176Z,-5.62
2023-02-08T09:39:25.553Z,-5.76
2023-02-08T09:42:43.572Z,-5.54
2023-02-08T09:46:00.168Z,-5.20
2023-02-08T09:49:02.902Z,-5.12
2023-02-08T09:52:05.984Z,-5.20
2023-02-08T09:55:34.619Z,-5.13
2023-02-08T09:58:43.041Z,-4.53
2023-02-08T10:01:39.889Z,-4.47
2023-02-08T10:05:05.128Z,2.28
2023-02-08T10:08:02.259Z,1.78
2023-02-08T10:11:23.523Z,0.45
2023-02-08T10:14:49.738Z,3.55
2023-02-08T10:18:29.036Z,5.91
2023-02-08T10:21:59.406Z,6.30
2023-02-08T10:25:08.376Z,6.74
2023-02-08T10:28:42.752Z,6.94
2023-02-08T10:32:36.154Z,3.97
2023-02-08T10:35:44.943Z,6.07
2023-02-08T10:38:46.853Z,4.75
2023-02-08T10:41:46.035Z,6.11
2023-02-08T10:45:22.612Z,6.86
2023-02-08T10:48:52.731Z,7.58
2023-02-08T10:51:49.932Z,6.32
2023-02-08T10:54:46.806Z,8.80
2023-02-08T10:57:47.082Z,7.13
2023-02-08T11:00:45.817Z,7.46
2023-02-08T11:04:10.259Z,7.04
2023-02-08T11:07:21.416Z,5.51
2023-02-08T11:10:25.308Z,6.77
2023-02-08T11:13:24.453Z,7.44
2023-02-08T11:16:27.012Z,7.48
2023-02-08T11:19:35.598Z,7.06
2023-02-08T11:22:34.411Z,7.52
2023-02-08T11:25:37.081Z,6.94
2023-02-08T11:28:33.910Z,7.22
2023-02-08T11:31:32.157Z,8.09
2023-02-08T11:34:39.184Z,8.66
2023-02-08T11:37:36.085Z,6.67
2023-02-08T11:40:43.010Z,6.94
2023-02-08T11:43:40.272Z,7.39
2023-02-08T11:46:39.466Z,7.23
2023-02-08T11:49:41.127Z,6.87
2023-02-08T11:52:42.375Z,8.09
2023-02-08T11:55:40.600Z,7.75
2023-02-08T11:58:37.563Z,7.66
2023-02-08T12:01:40.971Z,7.10
2023-02-08T12:04:37.770Z,6.53
2023-02-08T12:08:19.772Z,7.49
2023-02-08T12:11:46.280Z,6.63
2023-02-08T12:15:16.945Z,7.77
2023-02-08T12:18:36.763Z,7.13
2023-02-08T12:21:46.352Z,8.70
2023-02-08T12:25:32.890Z,7.35
2023-02-08T12:28:57.539Z,7.25
2023-02-08T12:32:36.304Z,6.22
2023-02-08T12:36:03.684Z,6.77
2023-02-08T12:39:53.316Z,6.18
2023-02-08T12:43:48.573Z,7.75
2023-02-08T12:47:17.718Z,6.65
2023-02-08T12:51:00.346Z,6.43
2023-02-08T12:54:10.263Z,4.49
2023-02-08T12:57:11.929Z,5.85
2023-02-08T13:00:32.337Z,5.72
2023-02-08T13:04:03.841Z,5.66
2023-02-08T13:07:10.924Z,4.96
2023-02-08T13:10:42.428Z,5.82
2023-02-08T13:13:41.487Z,5.70
2023-02-08T13:16:46.367Z,5.17
2023-02-08T13:20:04.067Z,4.43
2023-02-08T13:23:12.634Z,4.69
2023-02-08T13:26:27.671Z,4.20
2023-02-08T13:29:28.155Z,4.80
2023-02-08T13:32:45.286Z,4.96
2023-02-08T13:35:42.467Z,4.47
2023-02-08T13:38:44.598Z,4.05
2023-02-08T13:41:54.468Z,6.32
2023-02-08T13:44:55.482Z,6.59
2023-02-08T13:48:00.429Z,6.65
2023-02-08T13:50:57.512Z,5.97
2023-02-08T13:53:57.302Z,6.39
2023-02-08T13:56:55.380Z,6.49
2023-02-08T14:00:25.892Z,6.37
2023-02-08T14:03:32.290Z,5.09
2023-02-08T14:06:30.972Z,4.83
2023-02-08T14:10:02.759Z,2.54
2023-02-08T14:13:24.131Z,2.05
2023-02-08T14:16:40.501Z,2.09
2023-02-08T14:19:42.483Z,2.32
2023-02-08T14:22:48.201Z,2.32
2023-02-08T14:25:48.638Z,1.99
2023-02-08T14:28:46.736Z,2.17
2023-02-08T14:31:45.530Z,1.47
2023-02-08T14:34:44.342Z,1.67
2023-02-08T14:37:45.587Z,1.29
2023-02-08T14:40:51.000Z,1.12
2023-02-08T14:43:48.758Z,1.31
2023-02-08T14:46:45.696Z,1.14
2023-02-08T14:49:44.982Z,1.21
2023-02-08T14:52:52.503Z,1.02
2023-02-08T14:55:59.804Z,1.04
2023-02-08T14:59:24.094Z,0.77
2023-02-08T15:02:26.168Z,1.09
2023-02-08T15:05:41.768Z,0.85
2023-02-08T15:08:38.820Z,0.77
2023-02-08T15:11:35.940Z,0.85
2023-02-08T15:14:37.277Z,0.96
2023-02-08T15:17:45.204Z,0.33
2023-02-08T15:20:44.135Z,0.73
2023-02-08T15:23:41.187Z,0.77
2023-02-08T15:26:43.879Z,0.30
2023-02-08T15:29:44.859Z,0.31
2023-02-08T15:32:41.791Z,0.41
2023-02-08T15:35:38.676Z,0.19
2023-02-08T15:38:38.799Z,0.13
2023-02-08T15:41:35.864Z,-0.09
2023-02-08T15:44:34.930Z,-0.17
2023-02-08T15:47:37.874Z,-0.25
2023-02-08T15:50:35.646Z,-0.52
2023-02-08T15:53:32.675Z,-0.99
2023-02-08T15:56:38.683Z,-0.84
2023-02-08T15:59:40.255Z,-1.02
2023-02-08T16:02:37.287Z,-1.26
2023-02-08T16:05:35.699Z,-1.23
2023-02-08T16:08:36.084Z,-1.24
2023-02-08T16:11:36.816Z,-1.70
2023-02-08T16:14:47.375Z,-1.66
2023-02-08T16:17:48.942Z,-1.64
2023-02-08T16:20:56.416Z,-1.72
2023-02-08T16:24:28.695Z,-1.91
2023-02-08T16:27:31.099Z,-2.22
2023-02-08T16:30:28.174Z,-1.95
2023-02-08T16:33:26.062Z,-2.08
2023-02-08T16:36:25.350Z,-2.07
2023-02-08T16:39:51.812Z,-2.03
2023-02-08T16:42:48.678Z,-2.17
2023-02-08T16:45:45.593Z,-2.20
2023-02-08T16:48:56.387Z,-2.46
2023-02-08T16:52:00.177Z,-2.38
2023-02-08T16:54:58.722Z,-2.42
2023-02-08T16:57:58.266Z,-2.50
2023-02-08T17:00:55.199Z,-2.37
2023-02-08T17:03:53.074Z,-2.45
2023-02-08T17:06:50.510Z,-2.64
2023-02-08T17:09:47.377Z,-2.67
2023-02-08T17:12:44.213Z,-2.69
2023-02-08T17:15:41.602Z,-2.80
2023-02-08T17:18:38.639Z,-3.01
2023-02-08T17:21:35.466Z,-2.97
2023-02-08T17:24:32.278Z,-3.07
2023-02-08T17:27:29.150Z,-3.09
2023-02-08T17:30:41.976Z,-3.08
2023-02-08T17:33:40.136Z,-2.91
2023-02-08T17:36:37.460Z,-3.17
2023-02-08T17:39:34.435Z,-3.15
2023-02-08T17:42:32.452Z,-2.94
2023-02-08T17:45:29.760Z,-3.12
2023-02-08T17:48:27.133Z,-3.34
2023-02-08T17:51:25.136Z,-3.28
2023-02-08T17:54:22.021Z,-3.60
2023-02-08T18:00:23.837Z,-3.37
2023-02-08T18:03:20.739Z,-3.32
2023-02-08T18:06:18.696Z,-3.38
2023-02-08T18:09:15.792Z,-3.39
2023-02-08T18:12:13.207Z,-3.73
2023-02-08T18:15:16.110Z,-3.69
2023-02-08T18:18:13.044Z,-3.63
2023-02-08T18:21:19.717Z,-3.65
2023-02-08T18:24:16.542Z,-3.47
2023-02-08T18:27:13.401Z,-3.97
2023-02-08T18:30:12.152Z,-4.01
2023-02-08T18:33:10.670Z,-3.48
2023-02-08T18:36:11.291Z,-3.66
2023-02-08T18:39:08.181Z,-4.11
2023-02-08T18:42:05.147Z,-3.95
2023-02-08T18:45:02.007Z,-4.17
2023-02-08T18:47:59.594Z,-4.18
2023-02-08T18:50:58.262Z,-4.52
2023-02-08T18:53:56.112Z,-4.44
2023-02-08T18:56:56.069Z,-4.54
2023-02-08T18:59:54.201Z,-4.54
2023-02-08T19:02:51.196Z,-4.47
2023-02-08T19:05:48.934Z,-4.54
2023-02-08T19:08:46.522Z,-4.44
2023-02-08T19:11:44.945Z,-4.54
2023-02-08T19:14:43.291Z,-3.98
2023-02-08T19:17:40.135Z,-4.49
2023-02-08T19:20:38.613Z,-4.77
2023-02-08T19:23:35.879Z,-4.81
2023-02-08T19:26:39.845Z,-5.15
2023-02-08T19:29:36.699Z,-4.96
2023-02-08T19:32:33.577Z,-5.11
2023-02-08T19:35:30.444Z,-4.99
2023-02-08T19:38:27.367Z,-5.06
2023-02-08T19:41:37.643Z,-5.10
2023-02-08T19:44:34.559Z,-5.07
2023-02-08T19:47:50.063Z,-4.82
2023-02-08T19:50:59.682Z,-5.01
2023-02-08T19:54:01.237Z,-4.81
2023-02-08T19:56:58.135Z,-4.87
2023-02-08T19:59:55.013Z,-5.25
2023-02-08T20:02:52.270Z,-5.38
2023-02-08T20:05:50.394Z,-5.11
2023-02-08T20:08:49.162Z,-5.06
2023-02-08T20:12:01.214Z,-4.84
2023-02-08T20:14:58.114Z,-5.42
2023-02-08T20:17:54.950Z,-5.30
2023-02-08T20:21:03.321Z,-5.39
2023-02-08T20:24:01.557Z,-5.33
2023-02-08T20:26:58.389Z,-5.57
2023-02-08T20:29:56.288Z,-5.65
2023-02-08T20:32:57.415Z,-5.65
2023-02-08T20:35:55.282Z,-5.56
2023-02-08T20:38:54.541Z,-5.62
2023-02-08T20:41:51.450Z,-5.55
2023-02-08T20:44:48.356Z,-5.62
2023-02-08T20:47:46.965Z,-6.03
2023-02-08T20:50:44.179Z,-6.02
2023-02-08T20:53:42.995Z,-5.92
2023-02-08T20:56:40.166Z,-5.81
2023-02-08T20:59:37.842Z,-5.92
2023-02-08T21:02:34.736Z,-5.93
2023-02-08T21:05:31.615Z,-5.82
2023-02-08T21:08:28.449Z,-5.86
2023-02-08T21:11:29.368Z,-5.70
2023-02-08T21:14:26.469Z,-5.78
2023-02-08T21:17:23.347Z,-5.87
2023-02-08T21:20:20.333Z,-5.94
2023-02-08T21:23:17.147Z,-5.93
2023-02-08T21:26:17.881Z,-6.02
2023-02-08T21:29:14.715Z,-6.37
2023-02-08T21:32:11.550Z,-6.20
2023-02-08T21:35:08.460Z,-6.28
2023-02-08T21:38:05.957Z,-5.98
2023-02-08T21:41:35.980Z,-6.32
2023-02-08T21:44:35.096Z,-6.41
2023-02-08T21:47:31.928Z,-6.19
2023-02-08T21:50:47.245Z,-6.27
2023-02-08T21:54:02.900Z,-6.38
2023-02-08T21:57:01.876Z,-6.37
2023-02-08T22:00:01.290Z,-6.60
2023-02-08T22:02:58.263Z,-6.56
2023-02-08T22:05:55.120Z,-6.45
2023-02-08T22:08:51.958Z,-6.52
2023-02-08T22:11:48.978Z,-6.49
2023-02-08T22:14:46.122Z,-6.51
2023-02-08T22:17:43.565Z,-6.39
2023-02-08T22:20:40.394Z,-6.23
2023-02-08T22:23:37.253Z,-6.59
2023-02-08T22:26:34.372Z,-6.28
2023-02-08T22:29:31.258Z,-6.67
2023-02-08T22:32:28.226Z,-6.73
2023-02-08T22:35:25.105Z,-6.86
2023-02-08T22:38:23.415Z,-6.61
2023-02-08T22:41:20.553Z,-6.81
2023-02-08T22:44:18.036Z,-6.97
2023-02-08T22:47:14.939Z,-6.92
2023-02-08T22:50:11.783Z,-6.97
2023-02-08T22:53:08.669Z,-6.49
2023-02-08T22:56:06.363Z,-6.73
2023-02-08T22:59:03.179Z,-6.90
2023-02-08T23:02:01.593Z,-7.09
2023-02-08T23:04:58.534Z,-7.16
2023-02-08T23:07:55.362Z,-7.06
2023-02-08T23:11:03.682Z,-7.17
2023-02-08T23:14:00.717Z,-7.27
2023-02-08T23:16:57.545Z,-7.11
2023-02-08T23:19:54.384Z,-7.24
2023-02-08T23:22:51.248Z,-6.96
2023-02-08T23:25:48.429Z,-7.07
2023-02-08T23:28:46.283Z,-7.12
2023-02-08T23:31:43.258Z,-7.43
2023-02-08T23:34:40.139Z,-7.23
2023-02-08T23:37:37.340Z,-7.31
2023-02-08T23:40:34.189Z,-7.31
2023-02-08T23:43:32.316Z,-7.68
2023-02-08T23:46:30.205Z,-7.28
2023-02-08T23:49:27.069Z,-7.55
2023-02-08T23:52:24.138Z,-7.29
2023-02-08T23:55:20.957Z,-7.75
2023-02-08T23:58:17.767Z,-7.79
